createdAt,value
2018-07-02T00:00:11.495Z,54.30
2018-07-02T00:02:40.258Z,55.00
2018-07-02T00:05:08.746Z,54.60
2018-07-02T00:07:37.045Z,54.80
2018-07-02T00:15:01.817Z,54.60
2018-07-02T00:17:30.164Z,55.30
2018-07-02T00:19:58.883Z,55.70
2018-07-02T00:22:27.204Z,55.50
2018-07-02T00:24:55.502Z,56.30
2018-07-02T00:27:24.511Z,56.00
2018-07-02T00:29:52.722Z,56.50
2018-07-02T00:32:21.290Z,55.90
2018-07-02T00:34:49.606Z,56.30
2018-07-02T00:37:17.922Z,57.10
2018-07-02T00:39:46.198Z,56.60
2018-07-02T00:42:14.485Z,56.70
2018-07-02T00:44:43.627Z,56.80
2018-07-02T00:47:12.676Z,57.10
2018-07-02T00:49:41.128Z,56.80
2018-07-02T00:54:38.469Z,57.80
2018-07-02T00:57:06.790Z,57.00
2018-07-02T00:59:35.135Z,57.90
2018-07-02T01:02:10.139Z,58.00
2018-07-02T01:04:38.807Z,58.30
2018-07-02T01:07:08.418Z,58.20
2018-07-02T01:09:36.707Z,58.30
2018-07-02T01:12:04.974Z,58.10
2018-07-02T01:17:02.212Z,58.50
2018-07-02T01:19:30.419Z,59.20
2018-07-02T01:21:59.332Z,59.70
2018-07-02T01:24:27.573Z,59.90
2018-07-02T01:26:55.909Z,59.90
2018-07-02T01:29:24.706Z,60.20
2018-07-02T01:31:52.971Z,60.50
2018-07-02T01:34:21.257Z,60.90
2018-07-02T01:36:49.505Z,61.60
2018-07-02T01:41:46.360Z,62.70
2018-07-02T01:44:15.182Z,61.90
2018-07-02T01:46:43.697Z,60.50
2018-07-02T01:49:12.270Z,60.20
2018-07-02T01:51:41.220Z,59.90
2018-07-02T01:54:09.430Z,60.20
2018-07-02T01:56:38.218Z,60.30
2018-07-02T01:59:06.424Z,60.80
2018-07-02T02:01:36.642Z,60.40
2018-07-02T02:04:05.612Z,60.70
2018-07-02T02:06:33.839Z,61.90
2018-07-02T02:09:02.060Z,61.70
2018-07-02T02:11:30.282Z,62.80
2018-07-02T02:13:58.496Z,62.90
2018-07-02T02:16:27.429Z,63.60
2018-07-02T02:18:55.663Z,63.60
2018-07-02T02:21:24.949Z,63.40
2018-07-02T02:23:53.179Z,63.70
2018-07-02T02:26:21.419Z,64.60
2018-07-02T02:28:49.689Z,65.30
2018-07-02T02:31:17.934Z,65.80
2018-07-02T02:33:46.502Z,67.80
2018-07-02T02:36:14.715Z,67.50
2018-07-02T02:38:43.345Z,68.00
2018-07-02T02:41:11.603Z,69.00
2018-07-02T02:43:39.844Z,69.10
2018-07-02T02:46:14.486Z,68.70
2018-07-02T02:51:17.389Z,68.20
2018-07-02T02:53:46.174Z,68.60
2018-07-02T02:56:14.425Z,68.70
2018-07-02T02:58:42.622Z,68.40
2018-07-02T03:01:10.857Z,68.70
2018-07-02T03:03:39.336Z,68.80
2018-07-02T03:06:07.659Z,68.80
2018-07-02T03:08:35.863Z,68.90
2018-07-02T03:11:04.088Z,68.60
2018-07-02T03:13:32.314Z,68.60
2018-07-02T03:16:01.506Z,68.60
2018-07-02T03:18:30.065Z,67.80
2018-07-02T03:20:58.696Z,67.90
2018-07-02T03:23:26.921Z,68.20
2018-07-02T03:25:55.206Z,68.10
2018-07-02T03:28:23.598Z,68.20
2018-07-02T03:30:51.846Z,67.90
2018-07-02T03:35:48.810Z,68.20
2018-07-02T03:38:17.062Z,69.00
2018-07-02T03:40:45.342Z,68.70
2018-07-02T03:43:13.862Z,69.50
2018-07-02T03:45:42.634Z,69.80
2018-07-02T03:48:11.539Z,69.50
2018-07-02T03:53:09.407Z,70.30
2018-07-02T03:55:37.696Z,70.30
2018-07-02T03:58:05.955Z,70.30
2018-07-02T04:00:34.246Z,70.70
2018-07-02T04:03:03.034Z,70.90
2018-07-02T04:05:31.831Z,71.80
2018-07-02T04:08:00.032Z,71.20
2018-07-02T04:10:29.015Z,70.70
2018-07-02T04:12:57.276Z,70.80
2018-07-02T04:15:25.819Z,70.50
2018-07-02T04:20:21.951Z,70.50
2018-07-02T04:22:50.151Z,70.80
2018-07-02T04:25:18.364Z,71.20
2018-07-02T04:27:50.886Z,70.80
2018-07-02T04:30:19.170Z,71.40
2018-07-02T04:32:47.450Z,71.60
2018-07-02T04:35:16.351Z,71.40
2018-07-02T04:40:12.582Z,71.30
2018-07-02T04:42:40.854Z,71.60
2018-07-02T04:45:09.456Z,70.70
2018-07-02T04:47:38.447Z,71.20
2018-07-02T04:50:07.236Z,71.00
2018-07-02T04:52:35.645Z,70.80
2018-07-02T04:55:03.943Z,70.90
2018-07-02T05:00:00.841Z,71.30
2018-07-02T05:02:29.674Z,70.80
2018-07-02T05:04:58.164Z,71.30
2018-07-02T05:07:26.438Z,70.80
2018-07-02T05:09:54.671Z,69.40
2018-07-02T05:12:23.152Z,68.20
2018-07-02T05:14:51.898Z,69.20
2018-07-02T05:17:21.328Z,68.60
2018-07-02T05:19:49.578Z,66.80
2018-07-02T05:22:17.779Z,67.50
2018-07-02T05:24:46.063Z,69.20
2018-07-02T05:27:14.772Z,70.30
2018-07-02T05:29:43.710Z,70.00
2018-07-02T05:32:12.054Z,71.10
2018-07-02T05:34:40.214Z,69.70
2018-07-02T05:37:08.460Z,68.00
2018-07-02T05:39:36.744Z,66.20
2018-07-02T05:42:05.118Z,67.70
2018-07-02T05:44:34.109Z,67.30
2018-07-02T05:47:03.048Z,66.10
2018-07-02T05:49:43.364Z,66.70
2018-07-02T05:52:11.841Z,63.30
2018-07-02T05:54:40.054Z,64.20
2018-07-02T05:57:08.258Z,65.10
2018-07-02T05:59:36.478Z,64.10
2018-07-02T06:02:10.689Z,61.30
2018-07-02T06:04:39.234Z,62.20
2018-07-02T06:07:07.479Z,62.90
2018-07-02T06:09:36.266Z,62.20
2018-07-02T06:12:11.198Z,61.70
2018-07-02T06:14:40.336Z,59.40
2018-07-02T06:17:08.502Z,59.40
2018-07-02T06:19:37.109Z,58.50
2018-07-02T06:22:05.299Z,59.10
2018-07-02T06:27:02.503Z,57.40
2018-07-02T06:29:30.771Z,56.60
2018-07-02T06:31:59.007Z,56.40
2018-07-02T06:34:27.311Z,54.10
2018-07-02T06:36:55.573Z,53.70
2018-07-02T06:39:23.907Z,51.40
2018-07-02T06:41:52.766Z,50.10
2018-07-02T06:44:21.771Z,48.50
2018-07-02T06:46:51.254Z,48.30
2018-07-02T06:49:19.478Z,47.50
2018-07-02T06:56:44.357Z,43.70
2018-07-02T06:59:12.585Z,41.40
2018-07-02T07:01:40.821Z,40.20
2018-07-02T07:04:10.519Z,39.10
2018-07-02T07:06:38.743Z,38.20
2018-07-02T07:09:07.900Z,35.20
2018-07-02T07:11:36.078Z,32.60
2018-07-02T07:14:04.698Z,34.50
2018-07-02T07:19:07.374Z,31.40
2018-07-02T07:21:35.573Z,31.50
2018-07-02T07:24:03.843Z,30.80
2018-07-02T07:26:32.320Z,29.90
2018-07-02T07:29:00.662Z,29.10
2018-07-02T07:31:29.171Z,28.40
2018-07-02T07:33:57.426Z,28.00
2018-07-02T07:38:54.307Z,27.40
2018-07-02T07:48:53.230Z,24.70
2018-07-02T07:51:21.985Z,25.00
2018-07-02T07:53:50.435Z,24.90
2018-07-02T07:58:47.257Z,26.00
2018-07-02T08:01:15.479Z,24.50
2018-07-02T08:08:41.819Z,23.30
2018-07-02T08:11:10.619Z,23.80
2018-07-02T08:13:39.306Z,23.40
2018-07-02T08:16:08.125Z,23.30
2018-07-02T08:18:36.385Z,22.50
2018-07-02T08:21:04.632Z,22.60
2018-07-02T08:23:33.013Z,21.40
2018-07-02T08:26:01.567Z,21.40
2018-07-02T08:28:30.040Z,22.20
2018-07-02T08:30:58.742Z,22.30
2018-07-02T08:33:27.247Z,20.90
2018-07-02T08:35:55.519Z,22.40
2018-07-02T08:40:52.052Z,22.30
2018-07-02T08:43:20.369Z,21.30
2018-07-02T08:48:17.454Z,21.80
2018-07-02T08:50:46.262Z,19.40
2018-07-02T08:53:15.955Z,21.00
2018-07-02T08:55:44.258Z,20.60
2018-07-02T08:58:13.563Z,19.20
2018-07-02T09:00:47.975Z,20.60
2018-07-02T09:03:16.515Z,19.70
2018-07-02T09:05:44.734Z,20.00
2018-07-02T09:08:13.391Z,20.80
2018-07-02T09:10:41.753Z,20.70
2018-07-02T09:13:11.004Z,18.80
2018-07-02T09:18:07.974Z,19.30
2018-07-02T09:20:38.945Z,20.60
2018-07-02T09:23:07.558Z,21.50
2018-07-02T09:25:35.862Z,20.90
2018-07-02T09:28:04.440Z,19.90
2018-07-02T09:30:32.989Z,20.80
2018-07-02T09:33:01.294Z,20.60
2018-07-02T09:35:29.722Z,18.40
2018-07-02T09:37:57.954Z,19.10
2018-07-02T09:40:27.047Z,19.40
2018-07-02T09:42:55.297Z,19.50
2018-07-02T09:47:52.874Z,17.70
2018-07-02T09:52:50.309Z,17.90
2018-07-02T09:55:20.089Z,18.00
2018-07-02T09:57:48.401Z,18.50
2018-07-02T10:00:16.596Z,18.00
2018-07-02T10:02:45.159Z,17.90
2018-07-02T10:05:13.954Z,17.20
2018-07-02T10:07:42.203Z,17.10
2018-07-02T10:10:11.057Z,16.70
2018-07-02T10:12:39.751Z,15.60
2018-07-02T10:15:08.531Z,16.00
2018-07-02T10:17:37.358Z,16.80
2018-07-02T10:22:34.263Z,17.10
2018-07-02T10:25:03.207Z,17.60
2018-07-02T10:27:31.611Z,17.00
2018-07-02T10:29:59.828Z,16.70
2018-07-02T10:32:28.035Z,16.70
2018-07-02T10:34:56.238Z,15.80
2018-07-02T10:39:52.508Z,17.10
2018-07-02T10:42:20.770Z,16.30
2018-07-02T10:44:49.634Z,15.90
2018-07-02T10:47:18.315Z,16.60
2018-07-02T10:49:46.539Z,15.80
2018-07-02T10:52:15.305Z,15.10
2018-07-02T10:54:43.520Z,15.90
2018-07-02T10:59:40.137Z,15.60
2018-07-02T11:02:13.651Z,16.50
2018-07-02T11:04:41.876Z,15.10
2018-07-02T11:07:10.145Z,15.90
2018-07-02T11:09:38.907Z,15.30
2018-07-02T11:12:07.166Z,15.80
2018-07-02T11:14:35.872Z,14.40
2018-07-02T11:17:04.116Z,15.70
2018-07-02T11:24:28.452Z,14.90
2018-07-02T11:26:56.762Z,14.10
2018-07-02T11:29:25.023Z,15.70
2018-07-02T11:31:53.384Z,15.30
2018-07-02T11:34:21.634Z,16.10
2018-07-02T11:36:49.962Z,15.50
2018-07-02T11:39:18.245Z,14.90
2018-07-02T11:41:46.471Z,14.90
2018-07-02T11:44:15.090Z,15.20
2018-07-02T11:46:44.379Z,14.70
2018-07-02T11:54:09.815Z,16.50
2018-07-02T11:56:38.876Z,14.20
2018-07-02T11:59:09.477Z,14.70
2018-07-02T12:01:38.227Z,15.40
2018-07-02T12:04:07.734Z,15.60
2018-07-02T12:06:36.512Z,16.00
2018-07-02T12:09:09.652Z,14.90
2018-07-02T12:11:39.718Z,15.20
2018-07-02T12:14:09.394Z,15.40
2018-07-02T12:16:40.309Z,16.10
2018-07-02T12:19:08.728Z,16.00
2018-07-02T12:21:37.126Z,15.70
2018-07-02T12:24:09.065Z,14.50
2018-07-02T12:26:38.195Z,14.70
2018-07-02T12:34:09.254Z,15.20
2018-07-02T12:36:37.564Z,15.10
2018-07-02T12:39:08.956Z,15.20
2018-07-02T12:41:37.534Z,16.30
2018-07-02T12:44:06.154Z,15.10
2018-07-02T12:46:35.026Z,13.70
2018-07-02T12:49:04.038Z,15.00
2018-07-02T12:51:45.427Z,14.70
2018-07-02T12:54:13.708Z,14.40
2018-07-02T12:56:41.937Z,14.50
2018-07-02T12:59:10.219Z,16.30
2018-07-02T13:01:38.469Z,16.70
2018-07-02T13:06:35.034Z,18.00
2018-07-02T13:11:31.259Z,19.40
2018-07-02T13:13:59.635Z,19.00
2018-07-02T13:16:28.822Z,20.30
2018-07-02T13:18:57.116Z,22.20
2018-07-02T13:23:53.393Z,23.00
2018-07-02T13:26:21.823Z,23.70
2018-07-02T13:28:50.216Z,24.70
2018-07-02T13:31:18.485Z,24.30
2018-07-02T13:33:46.768Z,25.10
2018-07-02T13:36:15.132Z,26.00
2018-07-02T13:38:44.184Z,24.80
2018-07-02T13:41:14.697Z,25.20
2018-07-02T13:46:14.974Z,26.70
2018-07-02T13:48:43.976Z,27.60
2018-07-02T13:51:12.551Z,27.00
2018-07-02T13:53:41.198Z,28.00
2018-07-02T13:56:09.698Z,27.10
2018-07-02T13:58:37.945Z,28.70
2018-07-02T14:01:06.673Z,26.70
2018-07-02T14:03:35.986Z,26.20
2018-07-02T14:06:05.103Z,27.70
2018-07-02T14:08:34.378Z,28.80
2018-07-02T14:11:02.606Z,29.50
2018-07-02T14:13:31.194Z,29.30
2018-07-02T14:16:00.096Z,29.10
2018-07-02T14:18:28.581Z,26.80
2018-07-02T14:20:56.983Z,27.90
2018-07-02T14:25:54.870Z,27.40
2018-07-02T14:28:23.579Z,28.30
2018-07-02T14:30:52.374Z,28.80
2018-07-02T14:35:49.766Z,29.60
2018-07-02T14:38:18.958Z,27.90
2018-07-02T14:40:47.202Z,29.20
2018-07-02T14:43:15.471Z,26.50
2018-07-02T14:45:45.226Z,27.50
2018-07-02T14:50:43.692Z,30.10
2018-07-02T14:53:24.220Z,29.20
2018-07-02T14:55:52.492Z,27.20
2018-07-02T14:58:20.714Z,28.80
2018-07-02T15:00:48.958Z,28.50
2018-07-02T15:03:17.906Z,28.00
2018-07-02T15:08:15.312Z,27.30
2018-07-02T15:13:11.554Z,26.00
2018-07-02T15:18:07.957Z,28.00
2018-07-02T15:20:36.177Z,27.00
2018-07-02T15:23:05.316Z,28.50
2018-07-02T15:25:33.655Z,28.00
2018-07-02T15:28:01.964Z,27.30
2018-07-02T15:30:36.763Z,28.60
2018-07-02T15:33:05.207Z,26.70
2018-07-02T15:38:01.437Z,25.40
2018-07-02T15:42:57.798Z,26.10
2018-07-02T15:50:23.677Z,27.40
2018-07-02T15:52:52.356Z,27.70
2018-07-02T15:55:21.200Z,26.50
2018-07-02T15:57:49.459Z,27.70
2018-07-02T16:00:18.512Z,26.60
2018-07-02T16:02:47.535Z,28.70
2018-07-02T16:05:15.819Z,27.90
2018-07-02T16:07:44.077Z,26.20
2018-07-02T16:12:40.327Z,26.20
2018-07-02T16:15:10.082Z,27.20
2018-07-02T16:17:38.355Z,28.20
2018-07-02T16:20:06.633Z,27.30
2018-07-02T16:22:34.878Z,28.40
2018-07-02T16:25:03.694Z,28.30
2018-07-02T16:27:31.938Z,28.40
2018-07-02T16:30:00.258Z,29.00
2018-07-02T16:34:56.513Z,28.60
2018-07-02T16:37:25.143Z,28.00
2018-07-02T16:39:53.405Z,27.70
2018-07-02T16:42:21.699Z,28.70
2018-07-02T16:44:50.467Z,29.30
2018-07-02T16:47:19.271Z,29.30
2018-07-02T16:49:48.225Z,30.30
2018-07-02T16:52:16.898Z,28.50
2018-07-02T16:54:45.227Z,29.50
2018-07-02T16:59:41.462Z,29.10
2018-07-02T17:04:42.253Z,30.00
2018-07-02T17:07:10.486Z,29.20
2018-07-02T17:09:38.778Z,29.20
2018-07-02T17:12:07.014Z,28.30
2018-07-02T17:14:35.498Z,28.70
2018-07-02T17:17:03.811Z,30.00
2018-07-02T17:19:32.498Z,29.40
2018-07-02T17:22:01.214Z,29.40
2018-07-02T17:26:57.517Z,29.10
2018-07-02T17:29:25.755Z,29.30
2018-07-02T17:34:22.065Z,29.50
2018-07-02T17:36:50.398Z,30.00
2018-07-02T17:41:53.078Z,29.80
2018-07-02T17:44:21.842Z,31.90
2018-07-02T17:46:50.445Z,31.00
2018-07-02T17:49:18.719Z,29.60
2018-07-02T17:51:50.107Z,30.00
2018-07-02T17:54:18.358Z,30.40
2018-07-02T17:56:46.619Z,29.90
2018-07-02T17:59:14.895Z,31.20
2018-07-02T18:01:43.730Z,31.20
2018-07-02T18:04:12.198Z,29.80
2018-07-02T18:06:40.472Z,31.40
2018-07-02T18:09:10.272Z,31.70
2018-07-02T18:11:38.559Z,30.70
2018-07-02T18:14:06.881Z,31.00
2018-07-02T18:16:35.429Z,31.20
2018-07-02T18:19:04.303Z,30.30
2018-07-02T18:21:32.986Z,31.80
2018-07-02T18:24:01.794Z,32.30
2018-07-02T18:26:31.042Z,31.40
2018-07-02T18:28:59.835Z,30.80
2018-07-02T18:33:57.934Z,30.70
2018-07-02T18:38:54.287Z,32.00
2018-07-02T18:41:22.621Z,31.90
2018-07-02T18:43:56.670Z,31.90
2018-07-02T18:46:25.376Z,31.90
2018-07-02T18:48:53.731Z,32.30
2018-07-02T18:51:22.025Z,32.40
2018-07-02T18:53:50.480Z,32.80
2018-07-02T18:56:19.092Z,32.70
2018-07-02T18:58:47.334Z,33.30
2018-07-02T19:01:16.136Z,32.20
2018-07-02T19:03:44.958Z,33.80
2018-07-02T19:06:13.214Z,32.70
2018-07-02T19:08:41.489Z,34.30
2018-07-02T19:11:09.915Z,33.20
2018-07-02T19:13:38.950Z,33.60
2018-07-02T19:16:07.307Z,34.90
2018-07-02T19:18:36.502Z,34.30
2018-07-02T19:21:04.767Z,34.80
2018-07-02T19:23:32.991Z,35.30
2018-07-02T19:26:01.491Z,36.10
2018-07-02T19:28:29.704Z,36.80
2018-07-02T19:30:58.003Z,37.00
2018-07-02T19:33:26.558Z,37.00
2018-07-02T19:35:54.812Z,37.10
2018-07-02T19:38:23.023Z,37.80
2018-07-02T19:40:51.290Z,37.90
2018-07-02T19:43:19.883Z,39.20
2018-07-02T19:45:48.610Z,38.60
2018-07-02T19:48:17.406Z,39.60
2018-07-02T19:50:45.669Z,39.70
2018-07-02T19:53:14.256Z,40.70
2018-07-02T19:55:42.611Z,39.80
2018-07-02T19:58:10.903Z,39.60
2018-07-02T20:00:39.622Z,40.80
2018-07-02T20:03:08.445Z,41.80
2018-07-02T20:05:36.641Z,42.90
2018-07-02T20:08:04.915Z,41.30
2018-07-02T20:10:33.592Z,41.80
2018-07-02T20:13:02.598Z,42.80
2018-07-02T20:17:59.094Z,41.60
2018-07-02T20:20:27.348Z,43.50
2018-07-02T20:25:23.751Z,43.80
2018-07-02T20:27:52.547Z,44.20
2018-07-02T20:30:21.099Z,43.70
2018-07-02T20:35:19.510Z,44.80
2018-07-02T20:37:47.974Z,45.00
2018-07-02T21:58:46.133Z,53.00
2018-07-02T22:03:47.639Z,53.60
2018-07-02T22:06:16.880Z,53.80
2018-07-02T22:08:45.654Z,53.00
2018-07-02T22:11:14.095Z,53.30
2018-07-02T22:13:42.947Z,52.90
2018-07-02T22:16:11.199Z,53.70
2018-07-02T22:23:35.688Z,54.70
2018-07-02T22:26:04.085Z,54.70
2018-07-02T22:28:33.197Z,55.50
2018-07-02T22:31:01.588Z,55.30
2018-07-02T22:33:29.858Z,55.70
2018-07-02T22:35:58.291Z,55.30
2018-07-02T22:38:26.617Z,56.40
2018-07-02T22:40:55.091Z,56.10
2018-07-02T22:43:23.390Z,56.60
2018-07-02T22:45:52.253Z,57.50
2018-07-02T22:48:21.364Z,57.20
2018-07-02T22:50:49.719Z,57.20
2018-07-02T22:53:18.395Z,57.40
2018-07-02T22:56:00.346Z,57.60
2018-07-02T23:00:58.952Z,56.70
2018-07-02T23:03:32.365Z,57.70
2018-07-02T23:08:29.087Z,58.90
2018-07-02T23:10:57.380Z,59.20
2018-07-02T23:13:25.870Z,59.60
2018-07-02T23:15:59.789Z,60.10
2018-07-02T23:18:28.374Z,59.40
2018-07-02T23:20:56.654Z,59.80
2018-07-02T23:23:24.939Z,60.20
2018-07-02T23:25:53.203Z,61.40
2018-07-02T23:28:21.490Z,61.70
2018-07-02T23:30:49.690Z,61.50
2018-07-02T23:33:18.656Z,61.20
2018-07-02T23:35:47.137Z,62.50
2018-07-02T23:38:15.581Z,61.60
2018-07-02T23:40:44.826Z,61.10
2018-07-02T23:43:13.102Z,60.30
2018-07-02T23:45:42.016Z,60.50
2018-07-02T23:48:10.689Z,61.80
2018-07-02T23:50:38.902Z,62.00
2018-07-02T23:53:07.589Z,62.40
2018-07-02T23:55:35.858Z,62.00
2018-07-02T23:58:04.199Z,61.30
